Tiempo atmosférico en la estación meteorológica de Cebreros, Ávila (850 m.)



Fecha
DESCASC
Temp. máxima en grados centígrados (hora)
DESCASC
Temp. mínima en grados centígrados (hora)
DESCASC
Temp. media en grados centígrados
DESCASC
Racha de viento máxima en m/sg (hora)
DESCASC
Velocidad máxima media en intervalos de 10 minutos(hora)
DESCASC
Precipitaciones diarias en mm
DESCASC
Precipitaciones de 00:00 a 06:00 en mm
DESCASC
Precipitaciones de 06:00 a 12:00 en mm
DESCASC
Precipitaciones de 12:00 a 18:00 en mm
DESCASC
Precipitaciones de 18:00 a 24:00 en mm
DESCASC
22-04-2019 17.8 (15:20) 7.1 (03:30) 12.4 6.39 (14:20) 3.61 (15:50) 0.4 0 0 0 0.4
21-04-2019 13.7 (12:20) 5.2 (06:20) 9.4 5.56 (14:20) 3.06 (05:10) 4 0 0 3.8 0.2
20-04-2019 20.1 (15:30) 7.9 (02:00) 14 13.61 (14:30) 6.67 (14:00) 0 0 0 0 0
19-04-2019 10.6 (14:50) 7.1 (03:40) 8.9 5.83 (14:20) 3.33 (11:10) 13.2 6 1.4 0.8 5
18-04-2019 11.9 (18:50) 7.8 (00:00) 9.8 7.78 (00:40) 4.17 (00:40) 3.8 1.8 0.2 0 1.8
17-04-2019 21.5 (17:40) 8.9 (00:00) 15.2 9.17 (22:50) 4.72 (16:40) 1 0 0 0 1
16-04-2019 20.2 (18:00) 4.6 (00:00) 12.4 8.89 (16:00) 4.17 (13:40) 0 0 0 0 0
15-04-2019 21.5 (18:00) 9.7 (00:00) 15.6 12.5 (20:00) 6.67 (20:00) 0 0 0 0 0
14-04-2019 23.9 (14:40) 11.8 (00:00) 17.8 8.33 (06:20) 4.17 (06:30) 0 0 0 0 0
13-04-2019 -- (--) -- (--) -- -- (--) -- (--) -- 0 -- 0 0
12-04-2019 15.9 (17:20) 5.3 (00:00) 10.6 10 (14:30) 4.72 (23:30) 0 0 0 0 0
11-04-2019 14 (14:20) 3.7 (00:00) 8.9 11.39 (15:00) 5.28 (15:00) 0 0 0 0 0
10-04-2019 11.3 (14:00) 5.6 (00:00) 8.5 15.56 (03:00) 5.56 (02:10) 4.6 0.2 0 3.8 0.6
09-04-2019 12.5 (16:20) 0.9 (00:00) 6.7 13.33 (15:40) 5.56 (16:00) 3.2 0 0.2 2.4 0.6
08-04-2019 13.9 (16:50) 5.8 (00:00) 9.8 11.94 (21:20) 4.72 (21:20) 2.4 0.6 0.6 0.6 0.6
07-04-2019 11.9 (14:10) 3.6 (00:00) 7.7 10 (10:50) 5 (12:10) 1 0 0 0 1
06-04-2019 11.9 (15:40) 0.1 (00:00) 6 12.78 (18:10) 5.56 (17:00) 0 0 0 0 0
05-04-2019 9 (00:00) 1.3 (00:00) 5.1 11.67 (16:30) 5 (16:50) 7.6 0 1.4 6.2 0
04-04-2019 14 (15:50) 0.5 (00:00) 7.3 9.17 (02:40) 4.72 (03:00) 0 0 0 0 0
03-04-2019 12.7 (17:20) 5.8 (00:00) 9.3 13.89 (13:40) 6.11 (09:30) 0 0 0 0 0
02-04-2019 18.9 (14:10) 7.9 (00:00) 13.4 9.72 (15:00) 4.72 (15:00) 0.4 0 0 0.4 0
01-04-2019 16.8 (16:40) 7.5 (00:00) 12.1 9.44 (18:00) 4.72 (17:50) 0 0 0 0 0
31-03-2019 14.7 (11:50) 4.7 (00:00) 9.7 8.61 (14:30) 5.28 (14:30) 0 0 0 0 0
30-03-2019 17.9 (14:20) 2.7 (00:00) 10.3 7.5 (23:59) 3.33 (15:20) 0 0 0 0 0
29-03-2019 16.3 (16:50) 4.3 (00:00) 10.3 8.61 (12:30) 5 (14:30) 0 0 0 0 0
28-03-2019 17.7 (14:10) 3.2 (00:00) 10.5 6.67 (16:00) 3.61 (13:50) 0 0 0 0 0
27-03-2019 18 (16:20) 1 (00:00) 9.5 6.11 (13:00) 2.78 (10:40) 0 0 0 0 0
26-03-2019 19.3 (15:50) 1.7 (00:00) 10.5 10.56 (16:40) 6.39 (16:40) 0 0 0 0 0
25-03-2019 -- (--) -- (--) -- -- (--) -- (--) -- 0 -- 0 0

Gráficas

Temp. máximas Temp. mínimas Temp. medias Precipitaciones Rachas de viento máximas Velocidades máximas media en intervalos de 10 minutos

Datos horarios

Fecha y hora oficial Temperatura (ºC) Velocidad del viento (km/h) Dirección del viento Racha (km/h) Dirección de racha Precipitación (mm) Presión (hPa) Tendencia (hPa) Humedad (%)
2019-04-23 23:00:00 4.4 11 Noroeste 24 Oeste 0.4 -- -- 85
2019-04-23 22:00:00 5.7 8 Oeste 29 Noroeste 0 -- -- 70
2019-04-23 21:00:00 6.5 9 Noroeste 29 Oeste 0 -- -- 66
2019-04-23 20:00:00 7.9 13 Oeste 32 Oeste 0.2 -- -- 63
2019-04-23 19:00:00 10 5 Sudoeste 22 Sudoeste 0 -- -- 55
2019-04-23 18:00:00 10.4 9 Sudoeste 33 Sur 0 -- -- 55
2019-04-23 17:00:00 12.8 12 Sudoeste 30 Sur 0 -- -- 48
2019-04-23 16:00:00 12.5 11 Sudoeste 35 Sudoeste 0 -- -- 49
2019-04-23 15:00:00 13.4 9 Sudoeste 26 Sur 0 -- -- 43
2019-04-23 14:00:00 12.6 9 Sur 29 Oeste 0 -- -- 48
2019-04-23 13:00:00 12.2 9 Sudoeste 23 Sudoeste 0 -- -- 47
2019-04-23 12:00:00 9.7 10 Sur 19 Sur 0 -- -- 63
2019-04-23 11:00:00 8.2 5 Sur 20 Sudeste 0 -- -- 81
2019-04-23 10:00:00 7.8 9 Sur 18 Sudeste 0 -- -- 81
2019-04-23 09:00:00 7.6 9 Sudeste 18 Sudeste 0 -- -- 87
2019-04-23 08:00:00 7.5 6 Sur 22 Sudeste 0.4 -- -- 92
2019-04-23 07:00:00 8.3 8 Sur 20 Sudeste 0.2 -- -- 87
2019-04-23 06:00:00 9.7 9 Sur 22 Sudoeste 0 -- -- 73
2019-04-23 05:00:00 10.1 5 Sur 18 Sudoeste 0 -- -- 71
2019-04-23 04:00:00 11 3 Sur 20 Sudoeste 0 -- -- 68
2019-04-23 03:00:00 10.3 4 Sur 14 Sur 0 -- -- 79
2019-04-23 02:00:00 9.9 2 Norte 8 Oeste 0 -- -- 87
2019-04-23 01:00:00 9.7 5 Nordeste 9 Nordeste 0 -- -- 89
2019-04-23 00:00:00 10.3 4 Noroeste 9 Sudoeste 0.4 -- -- 86
2019-04-22 23:00:00 11.7 2 Noroeste 6 Oeste 0 -- -- 62
2019-04-22 22:00:00 12.1 0 Calma 10 Sudoeste 0 -- -- 59
2019-04-22 21:00:00 14 6 Oeste 13 Sudoeste 0 -- -- 54
2019-04-22 20:00:00 14.9 4 Sur 15 Sur 0 -- -- 57
2019-04-22 19:00:00 15.9 5 Sur 11 Sudeste 0 -- -- 56
2019-04-22 18:00:00 15.4 6 Sur 17 Sudeste 0 -- -- 57
2019-04-22 17:00:00 16.6 8 Sur 22 Sur 0 -- -- 52
2019-04-22 16:00:00 17.3 10 Sudeste 23 Sudeste 0 -- -- 49
2019-04-22 15:00:00 17 8 Sur 23 Sudeste 0 -- -- 53
2019-04-22 14:00:00 17.4 9 Sur 17 Sur 0 -- -- 49
2019-04-22 13:00:00 14.7 4 Sudeste 15 Sur 0 -- -- 53
2019-04-22 12:00:00 13.3 5 Sudeste 14 Sudeste 0 -- -- 57
2019-04-22 11:00:00 13.1 8 Sudeste 14 Sudeste 0 -- -- 64
2019-04-22 10:00:00 13.1 5 Sudoeste 9 Sudoeste 0 -- -- 69
2019-04-22 09:00:00 9.9 0 Calma 6 Norte 0 -- -- 82
2019-04-22 08:00:00 7.2 2 Nordeste 5 Nordeste 0 -- -- 88
2019-04-22 07:00:00 7.9 3 Noroeste 11 Oeste 0 -- -- 84
2019-04-22 06:00:00 7.9 4 Noroeste 10 Oeste 0 -- -- 84
2019-04-22 05:00:00 7.9 5 Oeste 11 Noroeste 0 -- -- 85
2019-04-22 04:00:00 7.5 4 Oeste 11 Oeste 0 -- -- 86
2019-04-22 03:00:00 7.8 7 Noroeste 9 Noroeste 0 -- -- 81
2019-04-22 02:00:00 7.8 5 Noroeste 9 Noroeste 0 -- -- 84
2019-04-22 01:00:00 7.6 3 Oeste 6 Oeste 0 -- -- 90
2019-04-22 00:00:00 7.6 4 Noroeste 6 Noroeste 0 -- -- 92
2019-04-21 23:00:00 7.7 3 Oeste 6 Oeste 0 -- -- 93
2019-04-21 22:00:00 7.9 0 Calma 6 Sudeste 0 -- -- 91
2019-04-21 21:00:00 8.3 0 Calma 5 Este 0.2 -- -- 92
2019-04-21 20:00:00 9.7 0 Calma 5 Sur 0 -- -- 90
2019-04-21 19:00:00 10.7 0 Calma 9 Noroeste 0 -- -- 87
2019-04-21 18:00:00 9.2 6 Noroeste 15 Noroeste 0 -- -- 86
2019-04-21 17:00:00 8.4 7 Norte 14 Noroeste 0.6 -- -- 89
2019-04-21 16:00:00 8.4 6 Noroeste 16 Norte 1.8 -- -- 91
2019-04-21 15:00:00 9.1 4 Norte 20 Nordeste 1.4 -- -- 88
2019-04-21 14:00:00 11 6 Este 13 Este 0 -- -- 65
2019-04-21 13:00:00 12.7 5 Sur 10 Sur 0 -- -- 58
2019-04-21 12:00:00 13.1 4 Sudoeste 12 Oeste 0 -- -- 60
2019-04-21 11:00:00 11 4 Sur 12 Sur 0 -- -- 65
2019-04-21 10:00:00 9.9 4 Sur 8 Sur 0 -- -- 67
2019-04-21 09:00:00 7.9 2 Oeste 18 Norte 0 -- -- 77
2019-04-21 08:00:00 8.9 7 Norte 17 Norte 0 -- -- 67
2019-04-21 07:00:00 7.4 5 Norte 10 Norte 0 -- -- 76
2019-04-21 06:00:00 6.1 4 Noroeste 15 Oeste 0 -- -- 85
2019-04-21 05:00:00 6.7 6 Oeste 10 Oeste 0 -- -- 92
2019-04-21 04:00:00 7.6 4 Oeste 8 Noroeste 0 -- -- 91
2019-04-21 03:00:00 8.5 2 Sur 6 Sur 0 -- -- 89
2019-04-21 02:00:00 8.5 3 Sur 6 Sur 0 -- -- 89
2019-04-21 01:00:00 8.7 3 Sur 12 Sur 0 -- -- 88
2019-04-21 00:00:00 9.2 8 Sudeste 16 Sudeste 0 -- -- 85
2019-04-20 23:00:00 9.6 8 Sudeste 18 Sudeste 0 -- -- 81
2019-04-20 22:00:00 11.8 5 Sur 13 Sudoeste 0 -- -- 70
2019-04-20 21:00:00 13.6 8 Sudeste 26 Sudeste 0 -- -- 57
2019-04-20 20:00:00 15.5 9 Sudeste 30 Este 0 -- -- 47
2019-04-20 19:00:00 17.6 15 Este 35 Este 0 -- -- 43
2019-04-20 18:00:00 18.9 19 Este 36 Este 0 -- -- 36
2019-04-20 17:00:00 18.6 16 Este 34 Este 0 -- -- 37
2019-04-20 16:00:00 19.4 17 Este 31 Este 0 -- -- 36
2019-04-20 15:00:00 19.2 19 Este 49 Nordeste 0 -- -- 37
2019-04-20 14:00:00 19.2 24 Este 41 Este 0 -- -- 33
2019-04-20 13:00:00 18.6 12 Este 27 Este 0 -- -- 36
2019-04-20 12:00:00 15.8 6 Nordeste 19 Nordeste 0 -- -- 39
2019-04-20 11:00:00 12.8 6 Sudoeste 24 Nordeste 0 -- -- 56
2019-04-20 10:00:00 13.4 4 Sudeste 30 Este 0 -- -- 49
2019-04-20 09:00:00 13.9 5 Este 27 Nordeste 0 -- -- 45
2019-04-20 08:00:00 14.1 14 Nordeste 27 Nordeste 0 -- -- 43
2019-04-20 07:00:00 13.6 14 Nordeste 31 Norte 0 -- -- 45
2019-04-20 06:00:00 10.8 6 Nordeste 19 Nordeste 0 -- -- 66
2019-04-20 05:00:00 10.5 10 Norte 21 Nordeste 0 -- -- 67
2019-04-20 04:00:00 10.5 15 Nordeste 33 Nordeste 0 -- -- 71
2019-04-20 03:00:00 9.4 12 Nordeste 23 Nordeste 0 -- -- 83
2019-04-20 02:00:00 7.9 6 Norte 13 Nordeste 0 -- -- 98
2019-04-20 01:00:00 8.3 4 Sur 8 Sudoeste 0 -- -- 98
2019-04-20 00:00:00 8.5 2 Sur 9 Sur 0 -- -- 98
2019-04-19 23:00:00 8.7 4 Sudoeste 12 Sur 0.6 -- -- 97
2019-04-19 22:00:00 9 5 Sudeste 14 Sur 0.4 -- -- 97
2019-04-19 21:00:00 8.7 4 Noroeste 9 Noroeste 1.4 -- -- 97
2019-04-19 20:00:00 8.7 4 Nordeste 8 Este 2 -- -- 95
2019-04-19 19:00:00 9.3 3 Sudoeste 8 Sur 0.6 -- -- 93
2019-04-19 18:00:00 9.8 4 Sur 10 Sur 0.4 -- -- 91
2019-04-19 17:00:00 10.1 3 Nordeste 14 Este 0.2 -- -- 86
2019-04-19 16:00:00 10.2 8 Este 21 Este 0.2 -- -- 83
2019-04-19 15:00:00 10.6 10 Nordeste 21 Este 0 -- -- 77
2019-04-19 14:00:00 10.2 8 Este 17 Este 0 -- -- 81
2019-04-19 13:00:00 9.8 7 Nordeste 14 Nordeste 0 -- -- 88
2019-04-19 12:00:00 9.1 8 Este 19 Este 0 -- -- 91
2019-04-19 11:00:00 8 11 Este 19 Este 0 -- -- 95
2019-04-19 10:00:00 7.6 9 Este 16 Este 0.2 -- -- 97
2019-04-19 09:00:00 7.4 5 Nordeste 14 Este 0.2 -- -- 97
2019-04-19 08:00:00 7.3 2 Nordeste 11 Nordeste 0.2 -- -- 97
2019-04-19 07:00:00 7.3 3 Norte 11 Nordeste 0.8 -- -- 97
2019-04-19 06:00:00 7.3 4 Nordeste 9 Nordeste 0.8 -- -- 97
2019-04-19 05:00:00 7.2 3 Noroeste 9 Este 0.4 -- -- 97
2019-04-19 04:00:00 7.1 0 Calma 5 Oeste 0 -- -- 97
2019-04-19 03:00:00 7.2 3 Oeste 6 Noroeste 1.2 -- -- 97
2019-04-19 02:00:00 7.5 2 Nordeste 14 Nordeste 2.8 -- -- 97
2019-04-19 01:00:00 8 6 Este 12 Este 0.8 -- -- 96
2019-04-19 00:00:00 8.2 3 Sudoeste 7 Sudoeste 1.2 -- -- 96
2019-04-18 23:00:00 8.3 3 Norte 4 Noroeste 0.2 -- -- 95
2019-04-18 22:00:00 8.5 0 Calma 3 Sur 0.4 -- -- 91
2019-04-18 21:00:00 9.4 0 Calma 6 Sur 0 -- -- 85
2019-04-18 20:00:00 9.9 2 Sudoeste 9 Sur 0 -- -- 81
2019-04-18 19:00:00 11.7 3 Sur 9 Noroeste 0 -- -- 74
2019-04-18 18:00:00 10.6 4 Sur 8 Sur 0 -- -- 79
2019-04-18 17:00:00 9.4 3 Sur 17 Sudeste 0 -- -- 89
2019-04-18 16:00:00 9 6 Sur 21 Sur 0 -- -- 89
2019-04-18 15:00:00 9 9 Sudeste 20 Sudeste 0 -- -- 90
2019-04-18 14:00:00 9.9 12 Este 22 Este 0 -- -- 78
2019-04-18 13:00:00 9.5 6 Este 15 Este 0 -- -- 89
2019-04-18 12:00:00 9.3 5 Este 9 Este 0.2 -- -- 90
2019-04-18 11:00:00 9 2 Sudeste 7 Sur 0 -- -- 93
2019-04-18 10:00:00 8.7 0 Calma 6 Nordeste 0 -- -- 95
2019-04-18 09:00:00 8 4 Este 6 Sudeste 0 -- -- 96
2019-04-18 08:00:00 7.8 3 Nordeste 9 Este 0 -- -- 97
2019-04-18 07:00:00 7.8 6 Este 10 Este 0 -- -- 97
2019-04-18 06:00:00 7.9 2 Norte 10 Este 0 -- -- 96
2019-04-18 05:00:00 8 5 Este 12 Este 0 -- -- 96
2019-04-18 04:00:00 8 6 Nordeste 13 Este 0.6 -- -- 95
2019-04-18 03:00:00 8.3 6 Sudeste 13 Sudeste 0.6 -- -- 91
2019-04-18 02:00:00 9 6 Sur 28 Sur 0.6 -- -- 87
2019-04-18 01:00:00 10.4 10 Sur 28 Sudeste 0 -- -- 79
2019-04-18 00:00:00 11.4 14 Sudeste 29 Sudeste 0 -- -- 80
2019-04-17 23:00:00 14.4 13 Sudeste 33 Sudeste 0 -- -- 62
2019-04-17 22:00:00 15.3 8 Sur 32 Sudoeste 0 -- -- 54
2019-04-17 21:00:00 13.5 4 Sudeste 29 Sudoeste 0.2 -- -- 66
2019-04-17 20:00:00 13.9 5 Sudoeste 28 Oeste 0.6 -- -- 70
2019-04-17 19:00:00 14.8 11 Sudoeste 27 Sudoeste 0.2 -- -- 70
2019-04-17 18:00:00 20.4 10 Sur 23 Sur 0 -- -- 41
2019-04-17 17:00:00 20.2 12 Sudeste 29 Sudeste 0 -- -- 42
2019-04-17 16:00:00 18.8 14 Sudeste 27 Sudeste 0 -- -- 45
2019-04-17 15:00:00 18.5 13 Sudeste 31 Sudeste 0 -- -- 47
2019-04-17 14:00:00 17.9 13 Sudeste 27 Sudeste 0 -- -- 49
2019-04-17 13:00:00 15.3 14 Sudeste 30 Sur 0 -- -- 57
2019-04-17 12:00:00 15.6 12 Sudeste 24 Sudeste 0 -- -- 56
2019-04-17 11:00:00 15.1 7 Sur 18 Sudeste 0 -- -- 61
2019-04-17 10:00:00 12.4 5 Sur 17 Sur 0 -- -- 70
2019-04-17 09:00:00 10.5 5 Sudoeste 13 Sur 0 -- -- 77
2019-04-17 08:00:00 8.9 5 Sudoeste 13 Sudoeste 0 -- -- 82
2019-04-17 07:00:00 9.8 4 Sur 11 Sudeste 0 -- -- 79
2019-04-17 06:00:00 10.6 6 Sudeste 13 Sudeste 0 -- -- 76
2019-04-17 05:00:00 10.9 3 Sur 12 Sudeste 0 -- -- 75
2019-04-17 04:00:00 11.3 5 Sur 12 Sur 0 -- -- 73
2019-04-17 03:00:00 12.1 5 Sudeste 13 Sudeste 0 -- -- 70
2019-04-17 02:00:00 13.1 7 Sudeste 25 Sudeste 0 -- -- 59
2019-04-17 01:00:00 14.2 5 Sur 20 Sudeste 0 -- -- 39
2019-04-17 00:00:00 14.5 3 Sudoeste 10 Nordeste 0 -- -- 37
2019-04-16 23:00:00 15.7 4 Este 17 Sudeste 0 -- -- 34
2019-04-16 22:00:00 16.8 8 Sudeste 21 Este 0 -- -- 32
2019-04-16 21:00:00 17.1 8 Sudeste 25 Sudeste 0 -- -- 34
2019-04-16 20:00:00 18.2 13 Sudeste 28 Sur 0 -- -- 32
2019-04-16 19:00:00 19.2 10 Sudeste 28 Sudeste 0 -- -- 32
2019-04-16 18:00:00 20.2 9 Sur 26 Sur 0 -- -- 32
2019-04-16 17:00:00 19.6 8 Sur 28 Sur 0 -- -- 32
2019-04-16 16:00:00 19.4 14 Sur 32 Sur 0 -- -- 30
2019-04-16 15:00:00 19.1 13 Sur 30 Sudeste 0 -- -- 36
2019-04-16 14:00:00 17.4 14 Sudeste 29 Sudeste 0 -- -- 46
2019-04-16 13:00:00 16.5 13 Sudeste 26 Sur 0 -- -- 48
2019-04-16 12:00:00 15.8 9 Sur 18 Sudeste 0 -- -- 52
2019-04-16 11:00:00 14.9 9 Sudeste 22 Sudeste -- -- -- 56
2019-04-16 10:00:00 14.1 4 Sur 9 Sur 0 -- -- 53
2019-04-16 09:00:00 11.7 0 Calma 8 Noroeste 0 -- -- 61
2019-04-16 08:00:00 6.3 9 Noroeste 15 Noroeste 0 -- -- 79
2019-04-16 07:00:00 6.2 3 Noroeste 8 Sur 0 -- -- 79
2019-04-16 06:00:00 6.8 3 Noroeste 18 Oeste 0 -- -- 79
2019-04-16 05:00:00 7.8 3 Noroeste 18 Noroeste 0 -- -- 78
2019-04-16 04:00:00 8.9 8 Norte 18 Oeste 0 -- -- 75
2019-04-16 03:00:00 9.2 5 Noroeste 19 Noroeste 0 -- -- 74
2019-04-16 02:00:00 9.6 9 Noroeste 21 Oeste 0 -- -- 72
2019-04-16 01:00:00 10 9 Noroeste 30 Oeste 0 -- -- 71
2019-04-16 00:00:00 10.3 12 Noroeste 24 Noroeste 0 -- -- 69
2019-04-15 23:00:00 9.7 5 Sudoeste 21 Noroeste 0 -- -- 70
2019-04-15 22:00:00 11.2 12 Noroeste 31 Noroeste 0 -- -- 62
2019-04-15 21:00:00 11 17 Noroeste 40 Noroeste 0 -- -- 67
2019-04-15 20:00:00 12.7 24 Noroeste 45 Noroeste 0 -- -- 62
2019-04-15 19:00:00 16.4 16 Noroeste 33 Noroeste 0 -- -- 51
2019-04-15 18:00:00 21.5 10 Sudoeste 31 Oeste 0 -- -- 34
2019-04-15 17:00:00 20.2 10 Sudoeste 31 Oeste 0 -- -- 38
2019-04-15 16:00:00 20.1 12 Oeste 30 Sudeste 0 -- -- 42
2019-04-15 15:00:00 19.9 12 Sur 26 Sur 0 -- -- 48
2019-04-15 14:00:00 18.9 14 Sur 34 Sudeste 0 -- -- 55
2019-04-15 13:00:00 17.7 7 Sur 20 Sur 0 -- -- 63
2019-04-15 12:00:00 17.4 6 Sur 14 Sudeste 0 -- -- 64
2019-04-15 11:00:00 16.4 3 Sudoeste 9 Sudoeste 0 -- -- 66
2019-04-15 10:00:00 12.9 4 Sur 10 Sur 0 -- -- 79
2019-04-15 09:00:00 12.6 0 Calma 8 Norte 0 -- -- 80
2019-04-15 08:00:00 11.4 0 Calma 8 Oeste 0 -- -- 83
2019-04-15 07:00:00 11.4 3 Sudoeste 7 Oeste 0 -- -- 82
2019-04-15 06:00:00 11.2 4 Noroeste 8 Noroeste 0 -- -- 81
2019-04-15 05:00:00 11.9 5 Norte 9 Norte 0 -- -- 77
2019-04-15 04:00:00 10.5 3 Norte 9 Noroeste 0 -- -- 81
2019-04-15 03:00:00 11.5 3 Nordeste 8 Norte 0 -- -- 78
2019-04-15 02:00:00 12.6 2 Noroeste 11 Noroeste 0 -- -- 73
2019-04-15 01:00:00 12.7 4 Norte 9 Noroeste 0 -- -- 72
2019-04-15 00:00:00 14.3 4 Noroeste 10 Noroeste 0 -- -- 66
2019-04-14 23:00:00 15.2 7 Noroeste 10 Sudoeste 0 -- -- 62
2019-04-14 22:00:00 16.7 4 Noroeste 15 Norte 0 -- -- 57
2019-04-14 21:00:00 17.5 5 Norte 20 Norte 0 -- -- 55
2019-04-14 20:00:00 19.3 7 Norte 22 Nordeste 0 -- -- 50
2019-04-14 19:00:00 21.6 9 Norte 25 Norte 0 -- -- 46
2019-04-14 18:00:00 22 11 Norte 26 Nordeste 0 -- -- 45
2019-04-14 17:00:00 22.6 11 Nordeste 24 Nordeste 0 -- -- 43
2019-04-14 16:00:00 22.4 11 Norte 23 Noroeste 0 -- -- 43
2019-04-14 15:00:00 21.3 9 Nordeste 25 Nordeste 0 -- -- 44
2019-04-14 14:00:00 20.9 10 Noroeste 26 Noroeste 0 -- -- 44
2019-04-14 13:00:00 20.6 9 Noroeste 26 Oeste 0 -- -- 45
2019-04-14 12:00:00 19.9 4 Oeste 23 Oeste 0 -- -- 48
2019-04-14 11:00:00 16.3 9 Noroeste 22 Oeste 0 -- -- 58
2019-04-14 10:00:00 15.7 8 Oeste 21 Oeste 0 -- -- 60
2019-04-14 09:00:00 12.7 5 Nordeste 17 Norte 0 -- -- 71
2019-04-14 08:00:00 12 6 Nordeste 24 Oeste 0 -- -- 73
2019-04-14 07:00:00 12.2 10 Noroeste 30 Noroeste 0 -- -- 71
2019-04-14 06:00:00 12.5 9 Noroeste 26 Noroeste 0 -- -- 70
2019-04-14 05:00:00 12.5 14 Noroeste 27 Noroeste 0 -- -- 67
2019-04-14 04:00:00 12.4 3 Noroeste 14 Noroeste 0 -- -- 60
2019-04-14 03:00:00 12.7 4 Noroeste 11 Noroeste 0 -- -- 56
2019-04-14 02:00:00 13.8 3 Noroeste 20 Noroeste 0 -- -- 51
2019-04-14 01:00:00 14.6 12 Noroeste 26 Oeste 0 -- -- 49
2019-04-14 00:00:00 14.2 8 Oeste 19 Oeste 0 -- -- 46
2019-04-13 23:00:00 14.4 11 Oeste 16 Noroeste 0 -- -- 32
2019-04-13 22:00:00 15.1 4 Sudoeste 15 Norte 0 -- -- 31
2019-04-13 21:00:00 15.7 5 Norte 13 Norte -- -- -- 29
2019-04-13 20:00:00 18.1 5 Norte 17 Sudeste 0 -- -- 23
2019-04-13 19:00:00 20.1 8 Sudeste 25 Sudeste 0 -- -- 26
2019-04-13 18:00:00 20.6 12 Sur 23 Sudeste 0 -- -- 25
2019-04-13 17:00:00 20.2 14 Sudeste 26 Sur 0 -- -- 25
2019-04-13 16:00:00 21.4 9 Sudoeste 23 Sudeste 0 -- -- 21
2019-04-13 15:00:00 21.2 8 Sur 23 Sudeste 0 -- -- 19
2019-04-13 14:00:00 20.2 9 Sur 21 Sudeste 0 -- -- 24
2019-04-13 13:00:00 18.4 12 Este 23 Este 0 -- -- 25
2019-04-13 12:00:00 -- -- -- -- -- -- -- -- --
2019-04-13 11:00:00 15.3 10 Noroeste 26 Noroeste 0 -- -- 31
2019-04-13 10:00:00 14.2 9 Noroeste 27 Noroeste 0 -- -- 34
2019-04-13 09:00:00 12.1 3 Este 7 Sudeste 0 -- -- 42
2019-04-13 08:00:00 6.1 4 Nordeste 12 Este 0 -- -- 56
2019-04-13 07:00:00 6.2 3 Norte 12 Oeste 0 -- -- 55
2019-04-13 06:00:00 6.6 3 Oeste 8 Oeste 0 -- -- 54
2019-04-13 05:00:00 7.4 3 Sudoeste 17 Oeste 0 -- -- 53
2019-04-13 04:00:00 7.7 10 Oeste 17 Oeste 0 -- -- 52
2019-04-13 03:00:00 7.5 3 Noroeste 20 Noroeste 0 -- -- 52
2019-04-13 02:00:00 9.6 12 Noroeste 19 Noroeste 0 -- -- 46
2019-04-13 01:00:00 9.3 6 Oeste 21 Norte 0 -- -- 48
2019-04-13 00:00:00 11 15 Noroeste 30 Noroeste 0 -- -- 43
2019-04-12 23:00:00 11.4 14 Noroeste 30 Noroeste 0 -- -- 41
2019-04-12 22:00:00 11.7 15 Noroeste 26 Noroeste 0 -- -- 42
2019-04-12 21:00:00 11.8 8 Norte 25 Norte 0 -- -- 42
2019-04-12 20:00:00 13.5 8 Norte 32 Norte 0 -- -- 38
2019-04-12 19:00:00 15.6 12 Norte 31 Noroeste 0 -- -- 35
2019-04-12 18:00:00 15.4 15 Noroeste 30 Noroeste 0 -- -- 33
2019-04-12 17:00:00 15.3 15 Noroeste 28 Norte 0 -- -- 38
2019-04-12 16:00:00 14.9 13 Noroeste 31 Norte 0 -- -- 41
2019-04-12 15:00:00 15 12 Noroeste 36 Noroeste 0 -- -- 41
2019-04-12 14:00:00 14.5 13 Noroeste 34 Noroeste 0 -- -- 40
2019-04-12 13:00:00 14.1 13 Norte 33 Noroeste 0 -- -- 44
2019-04-12 12:00:00 12.2 10 Norte 31 Noroeste 0 -- -- 48
2019-04-12 11:00:00 12.9 11 Noroeste 29 Oeste 0 -- -- 46
2019-04-12 10:00:00 10.8 9 Noroeste 23 Noroeste 0 -- -- 52
2019-04-12 09:00:00 9.1 8 Noroeste 20 Noroeste 0 -- -- 55
2019-04-12 08:00:00 5.6 4 Este 20 Noroeste 0 -- -- 65
2019-04-12 07:00:00 5.7 8 Oeste 19 Oeste 0 -- -- 66
2019-04-12 06:00:00 5.9 9 Oeste 18 Oeste 0 -- -- 64
2019-04-12 05:00:00 5.4 3 Oeste 13 Norte 0 -- -- 68
2019-04-12 04:00:00 6.8 4 Norte 21 Noroeste 0 -- -- 63
2019-04-12 03:00:00 7.1 8 Noroeste 21 Oeste 0 -- -- 61
2019-04-12 02:00:00 7.5 9 Noroeste 18 Noroeste 0 -- -- 59
2019-04-12 01:00:00 6.7 6 Norte 19 Oeste 0 -- -- 60
2019-04-12 00:00:00 8.3 10 Noroeste 19 Noroeste 0 -- -- 53
2019-04-11 23:00:00 8.4 9 Noroeste 19 Noroeste 0 -- -- 52
2019-04-11 22:00:00 9 8 Noroeste 18 Norte 0 -- -- 50
2019-04-11 21:00:00 9.5 8 Norte 26 Noroeste 0 -- -- 50
2019-04-11 20:00:00 11 9 Norte 27 Norte 0 -- -- 44
2019-04-11 19:00:00 12.7 13 Norte 31 Noroeste 0 -- -- 41
2019-04-11 18:00:00 13.5 11 Noroeste 37 Nordeste 0 -- -- 39
2019-04-11 17:00:00 13.6 13 Norte 34 Noroeste 0 -- -- 41
2019-04-11 16:00:00 13.5 14 Norte 37 Norte 0 -- -- 41
2019-04-11 15:00:00 11.2 19 Nordeste 41 Nordeste 0 -- -- 45
2019-04-11 14:00:00 13.3 17 Nordeste 32 Nordeste 0 -- -- 44
2019-04-11 13:00:00 12.3 15 Norte 30 Norte 0 -- -- 46
2019-04-11 12:00:00 11.4 10 Norte 23 Norte 0 -- -- 49
2019-04-11 11:00:00 11.2 10 Norte 26 Norte 0 -- -- 51
2019-04-11 10:00:00 8.9 9 Noroeste 30 Noroeste 0 -- -- 60
2019-04-11 09:00:00 7.4 11 Noroeste 21 Noroeste 0 -- -- 66
2019-04-11 08:00:00 4.3 5 Sudoeste 33 Noroeste 0 -- -- 78
2019-04-11 07:00:00 4.6 18 Noroeste 38 Noroeste 0 -- -- 77
2019-04-11 06:00:00 4.8 7 Noroeste 31 Noroeste 0 -- -- 78
2019-04-11 05:00:00 5 9 Noroeste 27 Oeste 0 -- -- 79
2019-04-11 04:00:00 4.9 7 Noroeste 20 Norte 0 -- -- 82
2019-04-11 03:00:00 5.3 3 Este 30 Noroeste 0 -- -- 79
2019-04-11 02:00:00 6 12 Noroeste 35 Norte 0 -- -- 77
2019-04-11 01:00:00 6.6 14 Noroeste 35 Noroeste 0 -- -- 75
2019-04-11 00:00:00 6.7 19 Noroeste 37 Noroeste 0 -- -- 75
2019-04-10 23:00:00 6.4 14 Noroeste 34 Noroeste 0 -- -- 77
2019-04-10 22:00:00 6.4 12 Oeste 34 Oeste 0 -- -- 79
2019-04-10 21:00:00 6.1 13 Noroeste 41 Noroeste 0 -- -- 82
2019-04-10 20:00:00 6.9 10 Noroeste 28 Noroeste 0 -- -- 79
2019-04-10 19:00:00 6.9 9 Noroeste 25 Noroeste 0.6 -- -- 84
2019-04-10 18:00:00 8.4 8 Noroeste 33 Norte 2 -- -- 79
2019-04-10 17:00:00 8.4 13 Norte 40 Noroeste 0.2 -- -- 72
2019-04-10 16:00:00 10.1 7 Noroeste 29 Norte 0 -- -- 65
2019-04-10 15:00:00 8.6 9 Norte 30 Noroeste 1.2 -- -- 78
2019-04-10 14:00:00 11.3 13 Noroeste 27 Noroeste 0.4 -- -- 61
2019-04-10 13:00:00 9.5 13 Noroeste 33 Oeste 0 -- -- 65
2019-04-10 12:00:00 9.1 15 Noroeste 42 Oeste 0 -- -- 65
2019-04-10 11:00:00 9.5 18 Noroeste 43 Oeste 0 -- -- 56
2019-04-10 10:00:00 9 19 Noroeste 43 Noroeste 0 -- -- 59
2019-04-10 09:00:00 7.2 15 Noroeste 36 Oeste 0 -- -- 66
2019-04-10 08:00:00 5.8 10 Oeste 28 Oeste 0 -- -- 72
2019-04-10 07:00:00 6 11 Oeste 33 Noroeste 0 -- -- 70
2019-04-10 06:00:00 5.9 5 Oeste 36 Noroeste 0 -- -- 71
2019-04-10 05:00:00 6.1 9 Noroeste 37 Noroeste 0 -- -- 69
2019-04-10 04:00:00 6.4 13 Noroeste 45 Noroeste 0.2 -- -- 67
2019-04-10 03:00:00 6.4 18 Oeste 56 Oeste 0 -- -- 70
2019-04-10 02:00:00 6.6 13 Noroeste 38 Oeste 0 -- -- 69
2019-04-10 01:00:00 6.6 10 Oeste 31 Noroeste 0 -- -- 75
2019-04-10 00:00:00 6.3 15 Noroeste 37 Oeste 0 -- -- 77
2019-04-09 23:00:00 5.3 11 Oeste 29 Noroeste 0.6 -- -- 85
2019-04-09 22:00:00 7.2 6 Oeste 22 Oeste 0 -- -- 66
2019-04-09 21:00:00 7.8 9 Oeste 35 Oeste 0 -- -- 64
2019-04-09 20:00:00 8.5 12 Oeste 39 Oeste 0 -- -- 63
2019-04-09 19:00:00 9.8 13 Oeste 32 Norte 0 -- -- 58
2019-04-09 18:00:00 11.3 11 Oeste 39 Oeste 0 -- -- 49
2019-04-09 17:00:00 11.9 19 Oeste 40 Oeste 0 -- -- 40
2019-04-09 16:00:00 12.1 20 Oeste 48 Oeste 0 -- -- 42
2019-04-09 15:00:00 10.6 17 Noroeste 38 Oeste 0.2 -- -- 57
2019-04-09 14:00:00 6.2 3 Sudoeste 21 Noroeste 1.8 -- -- 86
2019-04-09 13:00:00 7.7 3 Sudeste 12 Sudeste 0.4 -- -- 82
2019-04-09 12:00:00 8.7 5 Sudeste 13 Sur 0 -- -- 66
2019-04-09 11:00:00 8.8 5 Este 9 Este 0 -- -- 69
2019-04-09 10:00:00 5.6 3 Nordeste 8 Nordeste 0 -- -- 80
2019-04-09 09:00:00 2.8 3 Norte 6 Noroeste 0 -- -- 89
2019-04-09 08:00:00 1.7 4 Nordeste 12 Noroeste 0 -- -- 92
2019-04-09 07:00:00 0.9 5 Norte 11 Noroeste 0.2 -- -- 92
2019-04-09 06:00:00 3.2 4 Oeste 16 Noroeste 0 -- -- 83
2019-04-09 05:00:00 4.3 10 Oeste 18 Noroeste 0 -- -- 78
2019-04-09 04:00:00 4 3 Sudoeste 18 Noroeste 0 -- -- 82
2019-04-09 03:00:00 4.8 11 Oeste 19 Oeste 0 -- -- 81
2019-04-09 02:00:00 4.8 0 Calma 18 Oeste 0 -- -- 80
2019-04-09 01:00:00 5.5 12 Noroeste 17 Noroeste 0 -- -- 77
2019-04-09 00:00:00 5.9 10 Noroeste 18 Oeste 0 -- -- 79
2019-04-08 23:00:00 6.1 7 Noroeste 18 Noroeste 0 -- -- 80
2019-04-08 22:00:00 6.3 11 Oeste 43 Noroeste 0.6 -- -- 82
2019-04-08 21:00:00 9.8 9 Noroeste 23 Norte 0 -- -- 65
2019-04-08 20:00:00 10.2 5 Noroeste 21 Oeste 0 -- -- 67
2019-04-08 19:00:00 11.3 5 Noroeste 16 Nordeste 0 -- -- 58
2019-04-08 18:00:00 13.4 5 Sudoeste 14 Sudoeste 0 -- -- 54
2019-04-08 17:00:00 13.8 7 Sur 14 Sur 0 -- -- 54
2019-04-08 16:00:00 12.8 4 Este 8 Nordeste 0 -- -- 61
2019-04-08 15:00:00 12.7 3 Sur 9 Este 0 -- -- 65
2019-04-08 14:00:00 11.2 3 Nordeste 9 Sudeste 0 -- -- 77
2019-04-08 13:00:00 12.9 6 Sur 12 Sur 0.6 -- -- 77
2019-04-08 12:00:00 9.6 5 Sudoeste 12 Sudeste 0.2 -- -- 91
2019-04-08 11:00:00 10.7 5 Este 10 Este 0 -- -- 86
2019-04-08 10:00:00 9.3 5 Este 8 Este 0 -- -- 93
2019-04-08 09:00:00 6.9 3 Nordeste 9 Nordeste 0.2 -- -- 98
2019-04-08 08:00:00 6.5 5 Norte 10 Nordeste 0 -- -- 98
2019-04-08 07:00:00 6.5 5 Nordeste 9 Norte 0.2 -- -- 98
2019-04-08 06:00:00 6.4 4 Norte 10 Nordeste 0.4 -- -- 97
2019-04-08 05:00:00 6.3 4 Nordeste 7 Nordeste 0.2 -- -- 97
2019-04-08 04:00:00 6.3 2 Nordeste 8 Nordeste 0 -- -- 97
2019-04-08 03:00:00 6.3 3 Este 7 Este 0 -- -- 96
2019-04-08 02:00:00 6.3 2 Nordeste 6 Este 0 -- -- 96
2019-04-08 01:00:00 6.2 2 Este 5 Este 0 -- -- 94
2019-04-08 00:00:00 6.1 0 Calma 8 Nordeste 0 -- -- 94
2019-04-07 23:00:00 6.1 4 Nordeste 11 Nordeste 0 -- -- 94
2019-04-07 22:00:00 6.1 5 Norte 12 Nordeste 0.2 -- -- 93
2019-04-07 21:00:00 6.1 7 Nordeste 12 Nordeste 0 -- -- 92
2019-04-07 20:00:00 6.9 6 Este 9 Nordeste 0.2 -- -- 88
2019-04-07 19:00:00 7.7 2 Sur 13 Sudoeste 0.6 -- -- 83
2019-04-07 18:00:00 9.2 3 Oeste 19 Oeste 0 -- -- 70
2019-04-07 17:00:00 10.6 6 Sudoeste 34 Sudoeste 0 -- -- 57
2019-04-07 16:00:00 11.2 6 Sudeste 19 Sudeste 0 -- -- 50
2019-04-07 15:00:00 10.9 12 Sudeste 22 Sudeste 0 -- -- 50
2019-04-07 14:00:00 11.3 8 Noroeste 26 Noroeste 0 -- -- 41
2019-04-07 13:00:00 10.3 4 Oeste 32 Oeste 0 -- -- 45
2019-04-07 12:00:00 9.7 17 Noroeste 34 Oeste 0 -- -- 49
2019-04-07 11:00:00 8.7 17 Noroeste 36 Noroeste 0 -- -- 52
2019-04-07 10:00:00 6.5 12 Oeste 27 Oeste 0 -- -- 59
2019-04-07 09:00:00 4.6 13 Noroeste 24 Noroeste 0 -- -- 70
2019-04-07 08:00:00 4.4 7 Oeste 26 Oeste 0 -- -- 64
2019-04-07 07:00:00 3.9 9 Oeste 21 Noroeste 0 -- -- 66
2019-04-07 06:00:00 4.3 6 Oeste 28 Sudoeste 0 -- -- 67
2019-04-07 05:00:00 4.3 13 Oeste 31 Noroeste 0 -- -- 63
2019-04-07 04:00:00 4.4 15 Oeste 30 Oeste 0 -- -- 65
2019-04-07 03:00:00 3.8 10 Oeste 17 Oeste 0 -- -- 73
2019-04-07 02:00:00 4.3 8 Oeste 18 Oeste 0 -- -- 71
2019-04-07 01:00:00 4.6 3 Oeste 11 Oeste 0 -- -- 64
2019-04-07 00:00:00 4.6 6 Oeste 21 Sudoeste 0 -- -- 64
2019-04-06 23:00:00 5.3 9 Oeste 29 Oeste 0 -- -- 61
2019-04-06 22:00:00 5.4 14 Oeste 35 Oeste 0 -- -- 60
2019-04-06 21:00:00 6.1 15 Oeste 37 Oeste 0 -- -- 58
2019-04-06 20:00:00 7.1 10 Oeste 39 Oeste 0 -- -- 51
2019-04-06 19:00:00 8.3 10 Oeste 46 Noroeste 0 -- -- 51
2019-04-06 18:00:00 8.8 15 Oeste 36 Sudoeste 0 -- -- 48
2019-04-06 17:00:00 9.6 20 Oeste 41 Oeste 0 -- -- 41
2019-04-06 16:00:00 10.3 14 Oeste 32 Oeste 0 -- -- 42
2019-04-06 15:00:00 9.8 8 Sudoeste 33 Sudoeste 0 -- -- 53
2019-04-06 14:00:00 10.1 13 Sudoeste 33 Sudoeste 0 -- -- 52
2019-04-06 13:00:00 8.3 6 Sur 22 Sudeste 0 -- -- 71
2019-04-06 12:00:00 8 6 Sudeste 14 Sudeste 0 -- -- 75
2019-04-06 11:00:00 3.9 6 Este 18 Nordeste 0 -- -- 84
2019-04-06 10:00:00 2.5 5 Norte 10 Nordeste 0 -- -- 92
2019-04-06 09:00:00 1 8 Nordeste 12 Nordeste 0 -- -- 95
2019-04-06 08:00:00 0.3 6 Norte 12 Norte 0 -- -- 95
2019-04-06 07:00:00 0.3 0 Calma 7 Noroeste 0 -- -- 93
2019-04-06 06:00:00 0.2 4 Nordeste 7 Nordeste 0 -- -- 91
2019-04-06 05:00:00 0.7 0 Calma 8 Noroeste 0 -- -- 88
2019-04-06 04:00:00 2.3 3 Oeste 14 Sudoeste 0 -- -- 83
2019-04-06 03:00:00 1.9 3 Sur 13 Oeste 0 -- -- 86
2019-04-06 02:00:00 2.6 8 Oeste 18 Oeste 0 -- -- 84
2019-04-06 01:00:00 2.7 7 Oeste 14 Oeste 0 -- -- 88
2019-04-06 00:00:00 2.3 2 Nordeste 11 Noroeste 0 -- -- 92
2019-04-05 23:00:00 2.4 3 Sudoeste 22 Sudoeste 0 -- -- 90
2019-04-05 22:00:00 2.5 7 Oeste 12 Oeste 0 -- -- 93
2019-04-05 21:00:00 2.4 2 Noroeste 5 Noroeste 0 -- -- 94
2019-04-05 20:00:00 4.4 2 Sudoeste 10 Sur 0 -- -- 86
2019-04-05 19:00:00 5.8 3 Sudoeste 14 Oeste 0 -- -- 84
2019-04-05 18:00:00 2.3 3 Sudeste 20 Sudoeste 2.4 -- -- 92
2019-04-05 17:00:00 2.1 13 Oeste 42 Noroeste 0.6 -- -- 88
2019-04-05 16:00:00 6.5 5 Noroeste 12 Noroeste 0.8 -- -- 86
2019-04-05 15:00:00 5.2 6 Sudeste 15 Oeste 0 -- -- 82
2019-04-05 14:00:00 2.5 4 Sudoeste 28 Noroeste 2.2 -- -- 92
2019-04-05 13:00:00 5.9 4 Sudeste 15 Sudeste 0.2 -- -- 90
2019-04-05 12:00:00 4.7 9 Sudeste 24 Sur 0.2 -- -- 95
2019-04-05 11:00:00 4.1 13 Sudeste 23 Sudeste 0.8 -- -- 95
2019-04-05 10:00:00 3.7 8 Sudeste 22 Sudeste 0.2 -- -- 95
2019-04-05 09:00:00 3.6 4 Este 13 Este 0.2 -- -- 93
2019-04-05 08:00:00 3.5 3 Sudeste 14 Sudeste 0 -- -- 91
2019-04-05 07:00:00 3.5 4 Nordeste 14 Sudeste 0 -- -- 87
2019-04-05 06:00:00 3.5 4 Este 17 Sur 0 -- -- 86
2019-04-05 05:00:00 4.1 4 Norte 14 Norte 0 -- -- 81
2019-04-05 04:00:00 4.3 7 Norte 12 Nordeste 0 -- -- 80
2019-04-05 03:00:00 5.4 5 Sudeste 15 Sudeste 0 -- -- 72
2019-04-05 02:00:00 5.9 7 Sur 22 Sudoeste 0 -- -- 67
2019-04-05 01:00:00 6.7 6 Sur 24 Sudoeste 0 -- -- 56
2019-04-05 00:00:00 9 4 Sur 13 Sudoeste 0 -- -- 38
2019-04-04 23:00:00 9.4 3 Sudoeste 21 Sudoeste 0 -- -- 36
2019-04-04 22:00:00 9.7 7 Oeste 17 Sudoeste 0 -- -- 36
2019-04-04 21:00:00 10.2 7 Sudoeste 22 Sudoeste 0 -- -- 35
2019-04-04 20:00:00 11.2 10 Sudoeste 27 Sudoeste 0 -- -- 28
2019-04-04 19:00:00 12.3 9 Sur 20 Sudoeste 0 -- -- 29
2019-04-04 18:00:00 12.6 6 Sur 17 Sudeste 0 -- -- 29
2019-04-04 17:00:00 12.7 7 Oeste 30 Sudeste 0 -- -- 28
2019-04-04 16:00:00 13.2 10 Sudoeste 28 Este 0 -- -- 27
2019-04-04 15:00:00 12.7 8 Sur 28 Sudeste 0 -- -- 26
2019-04-04 14:00:00 13.1 9 Sur 21 Sur 0 -- -- 27
2019-04-04 13:00:00 12.1 5 Sudeste 22 Oeste 0 -- -- 27
2019-04-04 12:00:00 9.8 5 Noroeste 25 Oeste 0 -- -- 35
2019-04-04 11:00:00 8 8 Oeste 21 Oeste 0 -- -- 40
2019-04-04 10:00:00 5.7 12 Oeste 22 Oeste 0 -- -- 46
2019-04-04 09:00:00 4.6 5 Sur 15 Noroeste 0 -- -- 51
2019-04-04 08:00:00 0.5 9 Norte 29 Noroeste 0 -- -- 63
2019-04-04 07:00:00 1.1 10 Noroeste 23 Norte 0 -- -- 62
2019-04-04 06:00:00 1.6 12 Noroeste 26 Noroeste 0 -- -- 61
2019-04-04 05:00:00 1.9 9 Norte 30 Norte 0 -- -- 59
2019-04-04 04:00:00 2.5 16 Noroeste 32 Noroeste 0 -- -- 56
2019-04-04 03:00:00 2.7 17 Noroeste 33 Norte 0 -- -- 56
2019-04-04 02:00:00 3.4 10 Norte 30 Noroeste 0 -- -- 52
2019-04-04 01:00:00 4.6 8 Norte 31 Noroeste 0 -- -- 48
2019-04-04 00:00:00 5.8 9 Norte 27 Norte 0 -- -- 44
2019-04-03 23:00:00 7 9 Norte 30 Noroeste 0 -- -- 42
2019-04-03 22:00:00 8 7 Norte 25 Norte 0 -- -- 41
2019-04-03 21:00:00 8.7 9 Norte 27 Norte 0 -- -- 41
2019-04-03 20:00:00 9.5 9 Noroeste 33 Noroeste 0 -- -- 41
2019-04-03 19:00:00 10.9 12 Noroeste 39 Norte 0 -- -- 38
2019-04-03 18:00:00 12 13 Noroeste 46 Noroeste 0 -- -- 36
2019-04-03 17:00:00 12.3 14 Noroeste 43 Noroeste 0 -- -- 36
2019-04-03 16:00:00 12.4 14 Noroeste 46 Noroeste 0 -- -- 37
2019-04-03 15:00:00 12.1 18 Norte 47 Noroeste 0 -- -- 41
2019-04-03 14:00:00 10.1 19 Norte 50 Noroeste 0 -- -- 52
2019-04-03 13:00:00 11.9 15 Norte 39 Noroeste 0 -- -- 47
2019-04-03 12:00:00 11.5 14 Noroeste 39 Norte 0 -- -- 51
2019-04-03 11:00:00 11.2 15 Noroeste 39 Noroeste 0 -- -- 54
2019-04-03 10:00:00 8.9 18 Noroeste 41 Noroeste 0 -- -- 60
2019-04-03 09:00:00 9.4 9 Oeste 22 Noroeste 0 -- -- 61
2019-04-03 08:00:00 7.3 13 Noroeste 28 Noroeste 0 -- -- 67
2019-04-03 07:00:00 8.3 19 Noroeste 34 Noroeste 0 -- -- 61
2019-04-03 06:00:00 8.2 15 Noroeste 28 Noroeste 0 -- -- 60
2019-04-03 05:00:00 8.9 17 Noroeste 30 Noroeste 0 -- -- 55
2019-04-03 04:00:00 9.5 14 Noroeste 32 Oeste 0 -- -- 52
2019-04-03 03:00:00 10.2 15 Noroeste 27 Oeste 0 -- -- 47
2019-04-03 02:00:00 9.8 9 Oeste 20 Oeste 0 -- -- 44
2019-04-03 01:00:00 10.5 12 Oeste 21 Noroeste 0 -- -- 44
2019-04-03 00:00:00 11.3 8 Oeste 17 Noroeste 0 -- -- 44
2019-04-02 23:00:00 11.6 9 Oeste 15 Oeste 0 -- -- 48
2019-04-02 22:00:00 12.4 6 Noroeste 16 Oeste 0 -- -- 52
2019-04-02 21:00:00 12.5 6 Oeste 9 Oeste 0 -- -- 62
2019-04-02 20:00:00 14.1 3 Oeste 10 Sur 0 -- -- 56
2019-04-02 19:00:00 16.1 2 Sudoeste 15 Sudoeste 0 -- -- 48
2019-04-02 18:00:00 16.3 5 Sudoeste 13 Sur 0.2 -- -- 50
2019-04-02 17:00:00 14.2 6 Sur 13 Sur 0 -- -- 56
2019-04-02 16:00:00 12.9 2 Este 29 Noroeste 0.2 -- -- 67
2019-04-02 15:00:00 12.9 17 Oeste 35 Oeste 0 -- -- 57
2019-04-02 14:00:00 18.6 9 Sudoeste 16 Sudeste 0 -- -- 41
2019-04-02 13:00:00 14.4 6 Sudoeste 16 Sudoeste 0 -- -- 52
2019-04-02 12:00:00 16.4 6 Sur 15 Oeste 0 -- -- 49
2019-04-02 11:00:00 12.7 5 Este 8 Este 0 -- -- 60
2019-04-02 10:00:00 10.1 3 Sudoeste 7 Sudoeste 0 -- -- 72
2019-04-02 09:00:00 9.3 0 Calma 7 Nordeste 0 -- -- 72
2019-04-02 08:00:00 9.5 3 Sur 11 Noroeste 0 -- -- 69
2019-04-02 07:00:00 8.4 4 Sudoeste 6 Sudoeste 0 -- -- 78
2019-04-02 06:00:00 8.8 4 Norte 8 Norte 0 -- -- 75
2019-04-02 05:00:00 8.7 0 Calma 7 Oeste 0 -- -- 76
2019-04-02 04:00:00 8.6 4 Sudoeste 8 Sudoeste 0 -- -- 81
2019-04-02 03:00:00 9.7 2 Sudoeste 8 Oeste 0 -- -- 72
2019-04-02 02:00:00 9.9 2 Oeste 10 Noroeste 0 -- -- 71
2019-04-02 01:00:00 9.2 0 Calma 10 Noroeste 0 -- -- 75
2019-04-02 00:00:00 9.3 3 Sudoeste 12 Noroeste 0 -- -- 74
2019-04-01 23:00:00 10.1 6 Noroeste 11 Oeste 0 -- -- 69
2019-04-01 22:00:00 10.5 9 Oeste 20 Noroeste 0 -- -- 66
2019-04-01 21:00:00 10.7 12 Noroeste 18 Oeste 0 -- -- 66
2019-04-01 20:00:00 11 5 Oeste 26 Oeste 0 -- -- 67
2019-04-01 19:00:00 10.7 17 Oeste 28 Oeste 0 -- -- 74
2019-04-01 18:00:00 12.1 14 Oeste -- -- -- -- -- 64
2019-04-01 17:00:00 15.1 11 Sur 25 Sudeste 0 -- -- 50
2019-04-01 16:00:00 15.8 9 Sudeste 23 Sudeste 0 -- -- 48
2019-04-01 15:00:00 14.1 13 Sudeste 25 Sudeste 0 -- -- 52
2019-04-01 14:00:00 15.5 10 Sudeste 23 Este 0 -- -- 51
2019-04-01 13:00:00 14 6 Sudoeste 12 Sur 0 -- -- 57
2019-04-01 12:00:00 11.9 5 Sur 11 Sudeste 0 -- -- 67
2019-04-01 11:00:00 10.4 3 Sudoeste 10 Sudeste 0 -- -- 74
2019-04-01 10:00:00 10.4 3 Sudoeste 8 Sudeste 0 -- -- 74
2019-04-01 09:00:00 8.5 2 Sudoeste 5 Sudoeste 0 -- -- 85
2019-04-01 08:00:00 7.5 0 Calma 3 Sudeste 0 -- -- 89
2019-04-01 07:00:00 7.8 0 Calma 4 Sur 0 -- -- 88
2019-04-01 06:00:00 7.8 0 Calma 5 Sur 0 -- -- 88
2019-04-01 05:00:00 7.7 2 Sur 6 Sudoeste 0 -- -- 88
2019-04-01 04:00:00 8.1 2 Sur 5 Sudeste 0 -- -- 86
2019-04-01 03:00:00 7.9 4 Este 9 Este 0 -- -- 88
2019-04-01 02:00:00 7.9 6 Este 14 Este 0 -- -- 88
2019-04-01 01:00:00 8.8 5 Sur 14 Sudeste 0 -- -- 82
2019-04-01 00:00:00 9.2 8 Sudeste 13 Sudeste 0 -- -- 78
2019-03-31 23:00:00 9.1 3 Este 9 Este 0 -- -- 77
2019-03-31 22:00:00 9.4 4 Este 14 Este 0 -- -- 74
2019-03-31 21:00:00 9.9 6 Este 17 Este 0 -- -- 70
2019-03-31 20:00:00 10.8 8 Este 17 Sudeste 0 -- -- 67
2019-03-31 19:00:00 11 3 Sudeste 13 Sudeste 0 -- -- 65
2019-03-31 18:00:00 11.2 8 Sudeste 23 Este 0 -- -- 62
2019-03-31 17:00:00 12 12 Este 26 Sudeste 0 -- -- 60
2019-03-31 16:00:00 12.1 11 Sudeste 26 Sudeste 0 -- -- 58
2019-03-31 15:00:00 12.5 12 Sudeste 31 Nordeste 0 -- -- 51
2019-03-31 14:00:00 14.1 9 Este 22 Nordeste 0 -- -- 45
2019-03-31 13:00:00 14.1 8 Este 18 Sudeste 0 -- -- 47
2019-03-31 12:00:00 14.1 6 Sur 17 Sudeste 0 -- -- 46
2019-03-31 11:00:00 13.7 8 Sur 16 Sur 0 -- -- 47
2019-03-31 10:00:00 11.8 0 Calma 6 Nordeste 0 -- -- 54
2019-03-31 09:00:00 5.5 3 Norte 7 Nordeste 0 -- -- 76
2019-03-31 08:00:00 4.7 0 Calma 5 Oeste 0 -- -- 80
2019-03-31 07:00:00 6.4 0 Calma 6 Noroeste 0 -- -- 72
2019-03-31 06:00:00 6.2 4 Noroeste 9 Noroeste 0 -- -- 69
2019-03-31 05:00:00 7.2 5 Noroeste 9 Noroeste 0 -- -- 62
2019-03-31 03:00:00 8.1 0 Calma 8 Norte 0 -- -- 53
2019-03-31 01:00:00 8.6 7 Norte 13 Noroeste 0 -- -- 45
2019-03-31 00:00:00 8.3 8 Nordeste 27 Sudeste 0 -- -- 44
2019-03-30 23:00:00 9.7 7 Noroeste 10 Noroeste 0 -- -- 40
2019-03-30 22:00:00 8.3 3 Norte 8 Noroeste 0 -- -- 43
2019-03-30 21:00:00 11.6 2 Norte 7 Sudeste 0 -- -- 36
2019-03-30 20:00:00 13.8 4 Sudeste 20 Sudeste 0 -- -- 31
2019-03-30 19:00:00 15.4 10 Sur 20 Sur 0 -- -- 29
2019-03-30 18:00:00 16.9 8 Sur 23 Sudeste 0 -- -- 27
2019-03-30 17:00:00 17.1 11 Sudeste 24 Sudeste 0 -- -- 27
2019-03-30 16:00:00 17.4 7 Sur 22 Sur 0 -- -- 28
2019-03-30 15:00:00 16.9 10 Sur 21 Sudeste 0 -- -- 30
2019-03-30 14:00:00 17.1 8 Sudeste 21 Sudeste 0 -- -- 32
2019-03-30 13:00:00 15.4 9 Sur 19 Sudeste 0 -- -- 35
2019-03-30 12:00:00 15.1 8 Sur 19 Sudeste 0 -- -- 36
2019-03-30 11:00:00 14.2 5 Sudeste 17 Este 0 -- -- 38
2019-03-30 10:00:00 11.2 8 Este 14 Este 0 -- -- 42
2019-03-30 09:00:00 11.6 3 Sur 7 Sudeste 0 -- -- 42
2019-03-30 08:00:00 7 0 Calma 5 Noroeste 0 -- -- 59
2019-03-30 07:00:00 2.7 3 Noroeste 6 Oeste 0 -- -- 74
2019-03-30 06:00:00 3.5 3 Norte 7 Norte 0 -- -- 71
2019-03-30 05:00:00 4 4 Noroeste 10 Noroeste 0 -- -- 69
2019-03-30 04:00:00 5 5 Norte 9 Norte 0 -- -- 69
2019-03-30 03:00:00 5.5 0 Calma 6 Sudeste 0 -- -- 67
2019-03-30 02:00:00 6.9 4 Sudeste 12 Este 0 -- -- 62
2019-03-30 01:00:00 7.9 5 Este 11 Este 0 -- -- 56
2019-03-30 00:00:00 8.7 2 Sur 10 Sudeste 0 -- -- 48
2019-03-29 23:00:00 8.3 5 Noroeste 7 Noroeste 0 -- -- 42
2019-03-29 22:00:00 8.7 4 Noroeste 12 Noroeste 0 -- -- 41
2019-03-29 21:00:00 10.8 6 Norte 13 Sudeste 0 -- -- 36
2019-03-29 20:00:00 12.4 5 Sudeste 24 Sudeste 0 -- -- 32
2019-03-29 19:00:00 14.1 10 Sudeste 24 Sudeste 0 -- -- 29
2019-03-29 18:00:00 15.5 11 Sudeste 31 Este 0 -- -- 25
2019-03-29 17:00:00 16.1 10 Este 24 Este 0 -- -- 25
2019-03-29 16:00:00 15.7 15 Este 30 Este 0 -- -- 25
2019-03-29 15:00:00 15.4 12 Este 31 Este 0 -- -- 26
2019-03-29 14:00:00 15.5 13 Este 30 Sur 0 -- -- 27
2019-03-29 13:00:00 15 12 Sudeste 31 Sudeste 0 -- -- 28
2019-03-29 12:00:00 13.9 12 Sudeste 26 Sur 0 -- -- 28
2019-03-29 11:00:00 14.3 8 Sur 24 Sudeste 0 -- -- 26
2019-03-29 10:00:00 12.6 6 Sur 16 Sudoeste 0 -- -- 30
2019-03-29 09:00:00 12.9 5 Sudoeste 8 Sudoeste 0 -- -- 32
2019-03-29 08:00:00 9.6 0 Calma 6 Sudeste 0 -- -- 38
2019-03-29 07:00:00 4.6 3 Noroeste 7 Noroeste 0 -- -- 47
2019-03-29 06:00:00 4.9 5 Noroeste 9 Noroeste 0 -- -- 44
2019-03-29 05:00:00 4.3 4 Noroeste 9 Noroeste 0 -- -- 45
2019-03-29 04:00:00 6 5 Noroeste 12 Norte 0 -- -- 40
2019-03-29 03:00:00 7.1 8 Norte 13 Norte 0 -- -- 37
2019-03-29 02:00:00 5.1 3 Norte 8 Noroeste 0 -- -- 41
2019-03-29 01:00:00 4.5 2 Nordeste 7 Este 0 -- -- 43
2019-03-29 00:00:00 5.3 3 Noroeste 4 Noroeste 0 -- -- 40
2019-03-28 23:00:00 7 0 Calma 6 Sudoeste 0 -- -- 35
2019-03-28 22:00:00 7.1 4 Noroeste 7 Oeste 0 -- -- 36
2019-03-28 21:00:00 10.1 5 Noroeste 7 Noroeste 0 -- -- 29
2019-03-28 20:00:00 12.4 3 Sudeste 15 Sur 0 -- -- 25
2019-03-28 19:00:00 14.8 7 Sudeste 18 Sudeste 0 -- -- 22
2019-03-28 18:00:00 16.5 6 Sudeste 17 Sudeste 0 -- -- 20
2019-03-28 17:00:00 17.4 7 Sudeste 22 Sur 0 -- -- 20
2019-03-28 16:00:00 17.1 8 Sudeste 24 Sudeste 0 -- -- 20
2019-03-28 15:00:00 16.8 8 Sur 21 Sur 0 -- -- 21
2019-03-28 14:00:00 16.6 11 Sudeste 23 Sudeste 0 -- -- 21
2019-03-28 13:00:00 16.2 10 Sudeste 23 Sur 0 -- -- 22
2019-03-28 12:00:00 15.7 7 Sur 18 Sur 0 -- -- 23
2019-03-28 11:00:00 14.6 4 Sur 13 Sudeste 0 -- -- 23
2019-03-28 10:00:00 14.1 6 Sur 12 Sudeste 0 -- -- 28
2019-03-28 09:00:00 13.2 2 Sur 5 Este 0 -- -- 29
2019-03-28 08:00:00 7.4 0 Calma 4 Noroeste 0 -- -- 41
2019-03-28 07:00:00 4.2 0 Calma 4 Noroeste 0 -- -- 44
2019-03-28 06:00:00 5.1 0 Calma 5 Noroeste 0 -- -- 40
2019-03-28 05:00:00 4.5 2 Noroeste 5 Noroeste 0 -- -- 42
2019-03-28 04:00:00 6.7 5 Noroeste 9 Norte 0 -- -- 37
2019-03-28 03:00:00 7.2 4 Norte 10 Nordeste 0 -- -- 36
2019-03-28 02:00:00 7.1 2 Sur 12 Sudoeste 0 -- -- 37
2019-03-28 01:00:00 8.4 3 Sudoeste 6 Sudoeste 0 -- -- 34
2019-03-28 00:00:00 8.4 2 Sudoeste 13 Noroeste 0 -- -- 36
2019-03-27 23:00:00 6.9 7 Norte 12 Este 0 -- -- 42
2019-03-27 22:00:00 10 8 Noroeste 12 Noroeste 0 -- -- 35
2019-03-27 21:00:00 10.9 6 Noroeste 10 Noroeste 0 -- -- 34
2019-03-27 20:00:00 11.9 2 Oeste 14 Sur 0 -- -- 33
2019-03-27 19:00:00 14.8 8 Sur 19 Sur 0 -- -- 27
2019-03-27 18:00:00 17.3 6 Sudoeste 22 Sur 0 -- -- 27
2019-03-27 17:00:00 17.4 8 Sur 18 Sudeste 0 -- -- 27
2019-03-27 16:00:00 16.8 7 Sudoeste 19 Sur 0 -- -- 28
2019-03-27 15:00:00 16.6 8 Sur 21 Sudeste 0 -- -- 28
2019-03-27 14:00:00 16.5 7 Sur 18 Sudoeste 0 -- -- 28
2019-03-27 13:00:00 15.5 6 Oeste 22 Sur 0 -- -- 29
2019-03-27 12:00:00 14.4 7 Sudeste 16 Sur 0 -- -- 32
2019-03-27 11:00:00 12.3 8 Sur 18 Sudeste 0 -- -- 36
2019-03-27 10:00:00 11.4 3 Este 12 Este 0 -- -- 44
2019-03-27 09:00:00 9.8 3 Este 5 Este 0 -- -- 48
2019-03-27 08:00:00 6 0 Calma 4 Noroeste 0 -- -- 53
2019-03-27 07:00:00 2.1 3 Noroeste 9 Oeste 0 -- -- 65
2019-03-27 06:00:00 3.6 4 Oeste 11 Sudoeste 0 -- -- 52
2019-03-27 05:00:00 4.5 3 Sudoeste 7 Sur 0 -- -- 38
2019-03-27 04:00:00 5.3 0 Calma 5 Sur 0 -- -- 35
2019-03-27 03:00:00 7.2 2 Sur 7 Sudeste 0 -- -- 34
2019-03-27 02:00:00 7.8 3 Sur 8 Sudoeste 0 -- -- 28
2019-03-27 01:00:00 10.6 4 Sudeste 18 Este 0 -- -- 23
2019-03-27 00:00:00 11.6 4 Este 17 Nordeste 0 -- -- 22
2019-03-26 23:00:00 13.2 11 Nordeste 27 Este 0 -- -- 20
2019-03-26 22:00:00 12.7 8 Nordeste 21 Nordeste 0 -- -- 22
2019-03-26 21:00:00 14 9 Nordeste 25 Nordeste 0 -- -- 21
2019-03-26 20:00:00 15.6 18 Nordeste 33 Nordeste 0 -- -- 18
2019-03-26 19:00:00 17.2 16 Nordeste 38 Este 0 -- -- 23
2019-03-26 18:00:00 18.4 20 Este 33 Este 0 -- -- 24
2019-03-26 17:00:00 18.8 17 Este 38 Este 0 -- -- 23
2019-03-26 16:00:00 19.2 14 Nordeste 33 Este 0 -- -- 22
2019-03-26 15:00:00 18.9 14 Este 33 Sudeste 0 -- -- 22
2019-03-26 14:00:00 18.4 12 Este 24 Este 0 -- -- 24
2019-03-26 13:00:00 18.1 12 Sudeste 24 Este 0 -- -- 25
2019-03-26 12:00:00 17.1 11 Este 24 Este 0 -- -- 28
2019-03-26 11:00:00 15.8 6 Sur 13 Sur 0 -- -- 28
2019-03-26 10:00:00 14.8 6 Sudoeste 13 Sur 0 -- -- 33
2019-03-26 09:00:00 11.6 4 Sudeste 13 Oeste 0 -- -- 43
2019-03-26 08:00:00 7.6 8 Sudoeste 18 Oeste 0 -- -- 50
2019-03-26 07:00:00 2.5 6 Noroeste 12 Noroeste 0 -- -- 68
2019-03-26 06:00:00 3.5 6 Noroeste 10 Oeste 0 -- -- 64
2019-03-26 05:00:00 3.5 2 Nordeste 8 Noroeste 0 -- -- 65
2019-03-26 04:00:00 5.2 3 Norte 28 Noroeste 0 -- -- 59
2019-03-26 03:00:00 6.8 13 Noroeste 31 Oeste 0 -- -- 54
2019-03-26 02:00:00 7.3 14 Noroeste 30 Noroeste 0 -- -- 53
2019-03-26 01:00:00 8.5 5 Sudeste 26 Noroeste 0 -- -- 48
2019-03-26 00:00:00 10.2 15 Oeste 30 Oeste 0 -- -- 45
2019-03-25 23:00:00 10 19 Oeste 35 Oeste 0 -- -- 46
2019-03-25 22:00:00 11.4 6 Nordeste 32 Norte 0 -- -- 42
2019-03-25 21:00:00 12.6 14 Norte 40 Noroeste 0 -- -- 39
2019-03-25 20:00:00 14.1 15 Norte 39 Norte 0 -- -- 37
2019-03-25 19:00:00 16 13 Norte 35 Norte 0 -- -- 32
2019-03-25 18:00:00 17.8 12 Norte 28 Norte 0 -- -- 29
2019-03-25 17:00:00 19 13 Norte 27 Norte 0 -- -- 27
2019-03-25 16:00:00 19.5 12 Norte 30 Nordeste 0 -- -- 29
2019-03-25 15:00:00 19.8 13 Norte 30 Nordeste 0 -- -- 28
2019-03-25 14:00:00 19.4 14 Noroeste 32 Nordeste 0 -- -- 27
2019-03-25 13:00:00 20.8 6 Sudeste 17 Sudeste 0 -- -- 26
2019-03-25 12:00:00 -- -- -- -- -- -- -- -- --
2019-03-25 11:00:00 17.6 8 Sur 18 Sudeste 0 -- -- 30
2019-03-25 10:00:00 16.7 4 Sur 9 Sudeste 0 -- -- 32
2019-03-25 09:00:00 15 2 Este 15 Oeste 0 -- -- 39
2019-03-25 08:00:00 9 4 Noroeste 8 Oeste 0 -- -- 48
2019-03-25 07:00:00 6.8 4 Oeste 10 Noroeste 0 -- -- 50
2019-03-25 06:00:00 8 5 Noroeste 8 Noroeste 0 -- -- 46
2019-03-25 05:00:00 6.9 5 Noroeste 10 Noroeste 0 -- -- 50
2019-03-25 04:00:00 7 5 Noroeste 12 Noroeste 0 -- -- 50
2019-03-25 03:00:00 10 8 Noroeste 12 Noroeste 0 -- -- 43
2019-03-25 02:00:00 9.9 8 Noroeste 12 Noroeste 0 -- -- 44
2019-03-25 01:00:00 7.9 3 Norte 7 Norte 0 -- -- 50
2019-03-25 00:00:00 7.7 2 Noroeste 7 Noroeste 0 -- -- 50